createdAt,value
2017-12-16T00:02:07.814Z,13.41
2017-12-16T00:04:35.425Z,13.43
2017-12-16T00:07:03.017Z,13.38
2017-12-16T00:09:30.856Z,13.31
2017-12-16T00:11:58.611Z,13.08
2017-12-16T00:14:26.843Z,12.74
2017-12-16T00:16:54.427Z,12.81
2017-12-16T00:19:22.952Z,13.02
2017-12-16T00:21:50.510Z,12.98
2017-12-16T00:24:18.188Z,13.06
2017-12-16T00:26:45.803Z,13.29
2017-12-16T00:29:14.284Z,13.57
2017-12-16T00:31:41.954Z,13.58
2017-12-16T00:34:09.663Z,13.72
2017-12-16T00:36:37.467Z,13.70
2017-12-16T00:39:05.099Z,13.24
2017-12-16T00:41:33.212Z,13.44
2017-12-16T00:44:00.771Z,13.63
2017-12-16T00:46:28.596Z,13.68
2017-12-16T00:48:57.066Z,13.91
2017-12-16T00:51:25.572Z,14.19
2017-12-16T00:53:53.184Z,14.30
2017-12-16T00:56:21.683Z,14.08
2017-12-16T00:58:49.295Z,14.12
2017-12-16T01:01:16.958Z,13.93
2017-12-16T01:03:44.720Z,14.14
2017-12-16T01:06:12.922Z,13.61
2017-12-16T01:08:40.726Z,13.89
2017-12-16T01:11:08.527Z,13.88
2017-12-16T01:13:36.143Z,13.81
2017-12-16T01:16:03.782Z,13.79
2017-12-16T01:18:31.359Z,13.90
2017-12-16T01:20:59.186Z,13.35
2017-12-16T01:23:26.814Z,13.36
2017-12-16T01:25:54.864Z,13.37
2017-12-16T01:28:22.930Z,13.16
2017-12-16T01:30:50.750Z,13.66
2017-12-16T01:33:18.387Z,14.35
2017-12-16T01:39:07.178Z,13.70
2017-12-16T01:41:35.609Z,13.95
2017-12-16T01:44:03.378Z,14.17
2017-12-16T01:46:31.372Z,14.19
2017-12-16T01:48:58.970Z,14.25
2017-12-16T01:51:26.630Z,14.41
2017-12-16T01:53:54.415Z,14.30
2017-12-16T01:56:23.139Z,14.50
2017-12-16T01:58:50.813Z,14.58
2017-12-16T02:01:18.638Z,14.59
2017-12-16T02:03:48.717Z,14.57
2017-12-16T02:06:20.881Z,14.69
2017-12-16T02:08:58.266Z,14.80
2017-12-16T02:11:30.856Z,14.70
2017-12-16T02:13:58.501Z,14.88
2017-12-16T02:16:26.204Z,14.96
2017-12-16T02:18:53.835Z,15.02
2017-12-16T02:21:21.432Z,14.93
2017-12-16T02:23:50.110Z,14.82
2017-12-16T02:26:17.830Z,14.79
2017-12-16T02:28:45.393Z,14.76
2017-12-16T02:31:14.043Z,14.87
2017-12-16T02:33:41.719Z,15.06
2017-12-16T02:36:09.455Z,15.34
2017-12-16T02:38:37.132Z,15.49
2017-12-16T02:41:04.703Z,15.52
2017-12-16T02:43:32.302Z,15.52
2017-12-16T02:45:59.929Z,15.52
2017-12-16T02:48:27.552Z,15.48
2017-12-16T02:50:55.169Z,15.60
2017-12-16T02:53:22.790Z,15.61
2017-12-16T02:55:50.603Z,15.62
2017-12-16T02:58:18.159Z,15.65
2017-12-16T03:00:45.751Z,15.43
2017-12-16T03:03:13.340Z,15.63
2017-12-16T03:05:41.082Z,15.66
2017-12-16T03:08:09.518Z,15.55
2017-12-16T03:10:38.383Z,15.68
2017-12-16T03:13:05.953Z,15.66
2017-12-16T03:15:33.647Z,15.66
2017-12-16T03:18:01.854Z,15.63
2017-12-16T03:20:29.613Z,15.70
2017-12-16T03:22:57.223Z,15.47
2017-12-16T03:25:25.620Z,15.46
2017-12-16T03:27:53.260Z,15.52
2017-12-16T03:30:20.898Z,15.69
2017-12-16T03:32:48.664Z,15.76
2017-12-16T03:35:17.852Z,15.84
2017-12-16T03:37:45.443Z,15.71
2017-12-16T03:40:13.047Z,15.69
2017-12-16T03:42:40.686Z,15.66
2017-12-16T03:45:08.660Z,15.52
2017-12-16T03:47:36.181Z,15.48
2017-12-16T03:50:03.972Z,15.51
2017-12-16T03:52:31.563Z,15.52
2017-12-16T03:54:59.338Z,15.53
2017-12-16T03:57:26.925Z,15.54
2017-12-16T03:59:54.588Z,15.61
2017-12-16T04:02:22.263Z,15.68
2017-12-16T04:04:49.856Z,15.60
2017-12-16T04:07:17.455Z,15.50
2017-12-16T04:09:45.080Z,15.49
2017-12-16T04:12:12.696Z,15.58
2017-12-16T04:14:40.558Z,15.75
2017-12-16T04:17:08.173Z,15.69
2017-12-16T04:19:35.756Z,15.79
2017-12-16T04:22:03.396Z,15.85
2017-12-16T04:24:31.121Z,15.60
2017-12-16T04:26:59.262Z,15.55
2017-12-16T04:29:26.850Z,15.77
2017-12-16T04:31:54.462Z,15.78
2017-12-16T04:34:22.048Z,15.55
2017-12-16T04:36:49.779Z,15.48
2017-12-16T04:39:17.996Z,15.37
2017-12-16T04:41:46.547Z,15.38
2017-12-16T04:44:14.134Z,15.23
2017-12-16T04:46:41.739Z,15.28
2017-12-16T04:49:09.358Z,15.22
2017-12-16T04:51:37.130Z,15.46
2017-12-16T04:54:04.943Z,15.50
2017-12-16T04:56:32.794Z,15.57
2017-12-16T04:59:00.369Z,15.55
2017-12-16T05:01:28.054Z,15.58
2017-12-16T05:03:55.853Z,15.46
2017-12-16T05:06:23.468Z,15.51
2017-12-16T05:08:51.055Z,15.38
2017-12-16T05:11:18.883Z,15.37
2017-12-16T05:13:46.461Z,15.30
2017-12-16T05:16:14.150Z,15.32
2017-12-16T05:18:41.922Z,15.44
2017-12-16T05:21:09.610Z,15.45
2017-12-16T05:23:37.231Z,15.57
2017-12-16T05:26:04.838Z,15.30
2017-12-16T05:28:32.636Z,15.09
2017-12-16T05:31:01.041Z,15.14
2017-12-16T05:33:30.022Z,15.27
2017-12-16T05:35:57.552Z,15.30
2017-12-16T05:38:25.237Z,15.18
2017-12-16T05:40:52.918Z,15.04
2017-12-16T05:43:20.511Z,15.08
2017-12-16T05:45:48.294Z,15.01
2017-12-16T05:48:15.823Z,15.08
2017-12-16T05:50:43.411Z,15.21
2017-12-16T05:53:11.007Z,15.01
2017-12-16T05:55:38.590Z,14.77
2017-12-16T05:58:06.232Z,14.98
2017-12-16T06:00:33.954Z,14.99
2017-12-16T06:03:01.765Z,14.95
2017-12-16T06:05:30.098Z,15.07
2017-12-16T06:07:57.730Z,14.95
2017-12-16T06:10:25.329Z,14.85
2017-12-16T06:12:53.099Z,14.95
2017-12-16T06:15:21.617Z,14.88
2017-12-16T06:17:49.191Z,14.94
2017-12-16T06:20:17.001Z,15.07
2017-12-16T06:22:44.622Z,15.31
2017-12-16T06:25:12.256Z,15.29
2017-12-16T06:27:40.069Z,15.40
2017-12-16T06:30:07.817Z,15.56
2017-12-16T06:32:35.401Z,15.52
2017-12-16T06:35:03.170Z,15.58
2017-12-16T06:37:30.802Z,15.21
2017-12-16T06:39:58.582Z,15.05
2017-12-16T06:42:26.432Z,15.09
2017-12-16T06:44:54.085Z,15.29
2017-12-16T06:47:21.704Z,14.74
2017-12-16T06:49:49.735Z,14.40
2017-12-16T06:52:18.061Z,14.43
2017-12-16T06:54:45.681Z,14.53
2017-12-16T06:57:13.900Z,14.72
2017-12-16T06:59:42.424Z,15.11
2017-12-16T07:02:10.079Z,15.33
2017-12-16T07:04:37.705Z,15.51
2017-12-16T07:07:05.643Z,15.46
2017-12-16T07:09:33.360Z,15.62
2017-12-16T07:12:00.926Z,15.87
2017-12-16T07:14:28.548Z,15.98
2017-12-16T07:16:56.499Z,16.10
2017-12-16T07:19:24.128Z,16.11
2017-12-16T07:21:51.705Z,16.33
2017-12-16T07:24:20.455Z,16.35
2017-12-16T07:26:48.463Z,16.38
2017-12-16T07:29:16.655Z,16.53
2017-12-16T07:31:44.263Z,16.70
2017-12-16T07:34:11.986Z,16.51
2017-12-16T07:36:39.547Z,16.52
2017-12-16T07:39:07.237Z,16.59
2017-12-16T07:41:37.476Z,16.56
2017-12-16T07:44:05.032Z,16.47
2017-12-16T07:46:32.783Z,16.64
2017-12-16T07:49:00.403Z,16.64
2017-12-16T07:51:28.633Z,16.80
2017-12-16T07:53:56.289Z,16.84
2017-12-16T07:56:23.814Z,16.79
2017-12-16T07:58:51.666Z,16.79
2017-12-16T08:01:19.305Z,16.80
2017-12-16T08:03:46.879Z,16.83
2017-12-16T08:06:14.489Z,16.88
2017-12-16T08:08:42.211Z,16.83
2017-12-16T08:11:09.857Z,17.06
2017-12-16T08:13:37.469Z,17.17
2017-12-16T08:16:05.998Z,17.14
2017-12-16T08:18:33.875Z,17.16
2017-12-16T08:21:01.680Z,16.91
2017-12-16T08:23:29.576Z,17.11
2017-12-16T08:25:57.337Z,16.95
2017-12-16T08:28:24.974Z,16.98
2017-12-16T08:30:52.585Z,16.91
2017-12-16T08:33:21.980Z,17.43
2017-12-16T08:35:50.761Z,17.57
2017-12-16T08:38:18.367Z,17.97
2017-12-16T08:40:47.562Z,18.22
2017-12-16T08:43:15.099Z,18.38
2017-12-16T08:45:43.408Z,18.32
2017-12-16T08:48:11.778Z,18.75
2017-12-16T08:50:39.478Z,18.73
2017-12-16T08:53:07.299Z,18.66
2017-12-16T08:55:34.815Z,18.59
2017-12-16T08:58:03.333Z,18.21
2017-12-16T09:00:30.994Z,18.37
2017-12-16T09:02:58.788Z,18.47
2017-12-16T09:05:27.126Z,18.45
2017-12-16T09:07:54.724Z,18.02
2017-12-16T09:10:22.341Z,17.68
2017-12-16T09:12:49.910Z,17.84
2017-12-16T09:15:17.520Z,17.91
2017-12-16T09:17:45.177Z,17.95
2017-12-16T09:20:13.358Z,18.12
2017-12-16T09:22:40.992Z,17.81
2017-12-16T09:25:08.585Z,17.79
2017-12-16T09:27:36.161Z,18.09
2017-12-16T09:30:05.977Z,17.95
2017-12-16T09:32:33.619Z,17.79
2017-12-16T09:35:01.210Z,17.89
2017-12-16T09:37:28.878Z,17.90
2017-12-16T09:39:56.473Z,18.15
2017-12-16T09:42:24.049Z,18.01
2017-12-16T09:44:51.632Z,18.90
2017-12-16T09:47:19.386Z,19.04
2017-12-16T09:49:46.942Z,19.23
2017-12-16T09:52:14.526Z,19.42
2017-12-16T09:54:42.788Z,18.89
2017-12-16T09:57:13.991Z,18.68
2017-12-16T09:59:42.518Z,18.37
2017-12-16T10:02:10.158Z,18.19
2017-12-16T10:04:38.655Z,18.44
2017-12-16T10:07:06.252Z,18.37
2017-12-16T10:09:41.009Z,18.23
2017-12-16T10:12:08.586Z,17.95
2017-12-16T10:14:37.083Z,18.09
2017-12-16T10:17:04.711Z,18.05
2017-12-16T10:19:33.114Z,17.88
2017-12-16T10:22:00.941Z,17.85
2017-12-16T10:24:28.587Z,17.95
2017-12-16T10:26:56.178Z,18.02
2017-12-16T10:29:23.742Z,17.77
2017-12-16T10:31:51.972Z,17.92
2017-12-16T10:34:19.569Z,18.08
2017-12-16T10:36:47.166Z,18.10
2017-12-16T10:39:14.793Z,18.09
2017-12-16T10:41:43.533Z,18.46
2017-12-16T10:44:11.122Z,18.56
2017-12-16T10:46:38.794Z,18.77
2017-12-16T10:49:06.675Z,18.69
2017-12-16T10:51:34.362Z,18.85
2017-12-16T10:54:01.938Z,18.70
2017-12-16T10:56:29.547Z,18.84
2017-12-16T10:58:57.137Z,18.81
2017-12-16T11:01:24.749Z,18.70
2017-12-16T11:03:57.627Z,18.63
2017-12-16T11:06:28.339Z,18.36
2017-12-16T11:08:56.269Z,18.39
2017-12-16T11:11:23.827Z,18.15
2017-12-16T11:13:51.579Z,18.04
2017-12-16T11:16:19.174Z,18.22
2017-12-16T11:18:46.794Z,18.42
2017-12-16T11:21:14.400Z,18.79
2017-12-16T11:23:42.056Z,18.80
2017-12-16T11:26:09.999Z,19.16
2017-12-16T11:28:37.611Z,19.04
2017-12-16T11:31:05.289Z,18.82
2017-12-16T11:33:32.933Z,18.27
2017-12-16T11:36:00.522Z,18.41
2017-12-16T11:38:28.066Z,18.32
2017-12-16T11:40:55.679Z,18.54
2017-12-16T11:43:23.313Z,18.28
2017-12-16T11:45:50.916Z,18.23
2017-12-16T11:48:18.486Z,17.83
2017-12-16T11:50:46.015Z,17.86
2017-12-16T11:53:13.902Z,17.95
2017-12-16T11:55:41.421Z,18.08
2017-12-16T11:58:08.985Z,18.15
2017-12-16T12:00:36.629Z,18.17
2017-12-16T12:03:04.169Z,18.30
2017-12-16T12:05:31.753Z,18.42
2017-12-16T12:07:59.401Z,18.55
2017-12-16T12:10:27.000Z,18.38
2017-12-16T12:12:54.558Z,18.17
2017-12-16T12:15:22.105Z,18.16
2017-12-16T12:17:49.879Z,18.15
2017-12-16T12:20:18.243Z,18.01
2017-12-16T12:22:46.605Z,18.10
2017-12-16T12:25:14.232Z,18.11
2017-12-16T12:27:42.013Z,18.22
2017-12-16T12:30:09.611Z,18.05
2017-12-16T12:32:37.168Z,17.84
2017-12-16T12:35:04.952Z,17.72
2017-12-16T12:37:32.540Z,17.92
2017-12-16T12:40:00.129Z,17.84
2017-12-16T12:42:28.580Z,17.77
2017-12-16T12:44:56.171Z,17.76
2017-12-16T12:47:23.734Z,17.68
2017-12-16T12:49:51.297Z,17.76
2017-12-16T12:52:18.842Z,17.93
2017-12-16T12:54:46.393Z,17.89
2017-12-16T12:57:13.988Z,17.72
2017-12-16T12:59:42.313Z,17.68
2017-12-16T13:02:09.916Z,17.65
2017-12-16T13:04:37.483Z,17.61
2017-12-16T13:07:05.138Z,17.32
2017-12-16T13:09:32.734Z,17.35
2017-12-16T13:12:00.300Z,17.05
2017-12-16T13:14:28.121Z,17.01
2017-12-16T13:16:55.680Z,17.00
2017-12-16T13:19:23.241Z,16.93
2017-12-16T13:21:51.445Z,16.96
2017-12-16T13:24:19.781Z,16.91
2017-12-16T13:26:47.583Z,16.86
2017-12-16T13:29:15.252Z,16.65
2017-12-16T13:31:42.837Z,16.53
2017-12-16T13:34:12.344Z,16.43
2017-12-16T13:36:39.904Z,16.42
2017-12-16T13:39:07.836Z,16.32
2017-12-16T13:41:35.412Z,16.19
2017-12-16T13:44:02.987Z,16.32
2017-12-16T13:46:30.574Z,16.31
2017-12-16T13:48:58.949Z,16.47
2017-12-16T13:51:26.508Z,16.33
2017-12-16T13:53:54.883Z,16.35
2017-12-16T13:56:23.305Z,16.38
2017-12-16T13:58:50.918Z,16.31
2017-12-16T14:01:18.678Z,16.48
2017-12-16T14:03:46.299Z,16.39
2017-12-16T14:06:14.141Z,16.25
2017-12-16T14:08:41.900Z,16.54
2017-12-16T14:11:09.457Z,16.50
2017-12-16T14:13:37.009Z,16.42
2017-12-16T14:16:04.611Z,16.41
2017-12-16T14:18:32.168Z,16.31
2017-12-16T14:20:59.980Z,16.40
2017-12-16T14:23:27.617Z,16.40
2017-12-16T14:25:55.161Z,16.39
2017-12-16T14:28:22.839Z,16.48
2017-12-16T14:30:50.480Z,16.50
2017-12-16T14:33:18.074Z,16.53
2017-12-16T14:35:45.703Z,16.62
2017-12-16T14:38:13.371Z,16.69
2017-12-16T14:40:41.001Z,16.77
2017-12-16T14:43:08.566Z,16.69
2017-12-16T14:45:36.173Z,16.43
2017-12-16T14:48:03.783Z,16.67
2017-12-16T14:50:31.380Z,16.68
2017-12-16T14:52:58.939Z,16.49
2017-12-16T14:55:26.500Z,16.48
2017-12-16T14:57:55.983Z,16.25
2017-12-16T15:00:23.893Z,16.31
2017-12-16T15:02:51.636Z,16.12
2017-12-16T15:05:20.146Z,16.01
2017-12-16T15:07:48.336Z,15.93
2017-12-16T15:10:15.889Z,15.84
2017-12-16T15:12:43.693Z,15.89
2017-12-16T15:15:11.393Z,15.77
2017-12-16T15:17:38.955Z,15.73
2017-12-16T15:20:06.528Z,15.48
2017-12-16T15:22:34.813Z,15.31
2017-12-16T15:25:02.706Z,15.25
2017-12-16T15:27:30.269Z,15.06
2017-12-16T15:29:58.830Z,14.98
2017-12-16T15:32:26.650Z,15.05
2017-12-16T15:34:54.227Z,14.99
2017-12-16T15:37:21.810Z,14.82
2017-12-16T15:39:49.974Z,14.79
2017-12-16T15:42:17.646Z,14.65
2017-12-16T15:44:45.406Z,14.66
2017-12-16T15:47:13.082Z,14.62
2017-12-16T15:49:40.684Z,14.46
2017-12-16T15:52:08.264Z,14.43
2017-12-16T15:54:35.871Z,14.25
2017-12-16T15:57:03.744Z,14.22
2017-12-16T15:59:31.386Z,14.31
2017-12-16T16:01:59.067Z,14.30
2017-12-16T16:04:26.655Z,14.17
2017-12-16T16:06:54.509Z,14.03
2017-12-16T16:09:22.250Z,13.98
2017-12-16T16:11:49.886Z,13.98
2017-12-16T16:14:17.465Z,13.74
2017-12-16T16:16:45.023Z,13.50
2017-12-16T16:19:12.649Z,13.79
2017-12-16T16:21:40.467Z,13.43
2017-12-16T16:24:08.110Z,13.35
2017-12-16T16:26:37.256Z,13.40
2017-12-16T16:29:04.951Z,13.57
2017-12-16T16:31:32.541Z,13.38
2017-12-16T16:34:00.162Z,13.67
2017-12-16T16:36:27.793Z,13.56
2017-12-16T16:38:55.870Z,13.55
2017-12-16T16:41:24.187Z,13.57
2017-12-16T16:43:53.024Z,13.53
2017-12-16T16:46:22.012Z,13.42
2017-12-16T16:48:49.621Z,13.49
2017-12-16T16:51:17.340Z,13.60
2017-12-16T16:53:45.937Z,13.38
2017-12-16T16:56:21.804Z,13.51
2017-12-16T16:58:49.631Z,13.20
2017-12-16T17:01:18.313Z,13.24
2017-12-16T17:03:45.832Z,12.93
2017-12-16T17:06:13.731Z,13.18
2017-12-16T17:08:41.510Z,13.47
2017-12-16T17:11:09.187Z,12.91
2017-12-16T17:13:36.841Z,13.44
2017-12-16T17:16:04.464Z,13.22
2017-12-16T17:18:32.098Z,13.18
2017-12-16T17:20:59.746Z,13.41
2017-12-16T17:23:27.367Z,13.12
2017-12-16T17:25:55.551Z,13.24
2017-12-16T17:28:24.979Z,13.01
2017-12-16T17:30:52.691Z,12.95
2017-12-16T17:33:21.003Z,12.89
2017-12-16T17:35:48.580Z,12.81
2017-12-16T17:38:17.175Z,12.65
2017-12-16T17:40:44.761Z,12.65
2017-12-16T17:43:12.332Z,12.78
2017-12-16T17:45:39.945Z,12.90
2017-12-16T17:48:07.506Z,12.97
2017-12-16T17:50:35.064Z,12.93
2017-12-16T17:53:02.714Z,13.11
2017-12-16T17:55:30.255Z,13.00
2017-12-16T17:57:58.040Z,12.90
2017-12-16T18:00:25.629Z,12.87
2017-12-16T18:02:54.451Z,12.65
2017-12-16T18:05:22.202Z,12.63
2017-12-16T18:07:49.932Z,12.80
2017-12-16T18:10:17.616Z,12.88
2017-12-16T18:12:45.396Z,12.89
2017-12-16T18:15:13.900Z,12.86
2017-12-16T18:20:49.509Z,12.73
2017-12-16T18:23:17.949Z,12.66
2017-12-16T18:25:45.526Z,12.51
2017-12-16T18:28:13.809Z,12.60
2017-12-16T18:30:41.510Z,12.62
2017-12-16T18:33:09.951Z,12.31
2017-12-16T18:35:37.579Z,12.45
2017-12-16T18:38:05.222Z,12.49
2017-12-16T18:40:32.865Z,12.37
2017-12-16T18:43:00.518Z,12.21
2017-12-16T18:45:28.426Z,12.38
2017-12-16T18:47:56.112Z,12.32
2017-12-16T18:50:23.875Z,12.39
2017-12-16T18:52:51.873Z,12.24
2017-12-16T18:55:19.543Z,12.00
2017-12-16T18:57:47.385Z,12.21
2017-12-16T19:00:15.166Z,12.09
2017-12-16T19:03:16.310Z,12.03
2017-12-16T19:05:44.272Z,12.11
2017-12-16T19:08:11.874Z,12.07
2017-12-16T19:10:39.503Z,12.20
2017-12-16T19:13:07.135Z,12.05
2017-12-16T19:15:35.624Z,12.00
2017-12-16T19:18:03.316Z,12.19
2017-12-16T19:20:32.022Z,11.88
2017-12-16T19:22:59.624Z,11.86
2017-12-16T19:25:27.268Z,11.87
2017-12-16T19:27:55.800Z,11.74
2017-12-16T19:30:23.366Z,11.67
2017-12-16T19:32:51.239Z,11.72
2017-12-16T19:35:39.340Z,11.64
2017-12-16T19:38:07.303Z,11.36
2017-12-16T19:40:35.109Z,11.56
2017-12-16T19:43:02.757Z,11.36
2017-12-16T19:45:30.344Z,11.26
2017-12-16T19:47:57.913Z,11.22
2017-12-16T19:50:25.708Z,11.36
2017-12-16T19:52:53.552Z,11.58
2017-12-16T19:55:21.942Z,11.26
2017-12-16T19:57:52.727Z,11.17
2017-12-16T20:00:20.931Z,11.11
2017-12-16T20:02:48.531Z,11.17
2017-12-16T20:05:16.148Z,11.05
2017-12-16T20:07:43.729Z,11.09
2017-12-16T20:10:11.308Z,11.01
2017-12-16T20:12:38.941Z,11.14
2017-12-16T20:15:07.505Z,11.00
2017-12-16T20:17:35.059Z,10.81
2017-12-16T20:20:02.783Z,10.86
2017-12-16T20:22:30.362Z,10.69
2017-12-16T20:24:57.940Z,10.64
2017-12-16T20:27:25.934Z,10.61
2017-12-16T20:29:56.904Z,10.69
2017-12-16T20:32:24.600Z,10.52
2017-12-16T20:34:52.879Z,10.36
2017-12-16T20:37:20.493Z,10.34
2017-12-16T20:39:48.310Z,10.45
2017-12-16T20:42:15.900Z,10.29
2017-12-16T20:44:43.483Z,10.18
2017-12-16T20:47:11.105Z,10.18
2017-12-16T20:49:39.503Z,10.04
2017-12-16T20:52:08.808Z,10.05
2017-12-16T20:54:37.516Z,9.86
2017-12-16T20:57:06.038Z,9.78
2017-12-16T20:59:34.252Z,9.58
2017-12-16T21:02:25.227Z,9.56
2017-12-16T21:08:00.497Z,9.09
2017-12-16T21:10:28.280Z,9.11
2017-12-16T21:12:56.841Z,9.10
2017-12-16T21:15:24.455Z,9.05
2017-12-16T21:20:46.494Z,9.01
2017-12-16T21:23:14.454Z,9.05
2017-12-16T21:25:43.406Z,8.96
2017-12-16T21:28:11.120Z,8.70
2017-12-16T21:30:39.386Z,8.69
2017-12-16T21:33:07.803Z,8.53
2017-12-16T21:35:35.330Z,8.73
2017-12-16T21:38:02.940Z,8.57
2017-12-16T21:40:30.554Z,8.66
2017-12-16T21:42:58.162Z,8.51
2017-12-16T21:45:25.790Z,8.31
2017-12-16T21:47:53.412Z,8.18
2017-12-16T21:50:21.018Z,8.34
2017-12-16T21:52:49.086Z,8.32
2017-12-16T21:55:16.849Z,8.23
2017-12-16T21:57:44.471Z,8.25
2017-12-16T22:00:12.168Z,8.19
2017-12-16T22:02:39.689Z,8.17
2017-12-16T22:05:07.245Z,8.29
2017-12-16T22:07:34.804Z,8.17
2017-12-16T22:10:02.575Z,8.19
2017-12-16T22:12:30.181Z,8.29
2017-12-16T22:15:57.311Z,8.14
2017-12-16T22:18:25.080Z,8.19
2017-12-16T22:20:53.511Z,8.16
2017-12-16T22:23:21.340Z,8.09
2017-12-16T22:25:48.886Z,8.14
2017-12-16T22:28:16.455Z,8.23
2017-12-16T22:30:44.661Z,8.20
2017-12-16T22:33:12.199Z,8.17
2017-12-16T22:35:40.749Z,8.00
2017-12-16T22:38:08.390Z,8.03
2017-12-16T22:40:36.014Z,8.03
2017-12-16T22:43:03.656Z,8.24
2017-12-16T22:45:31.258Z,8.04
2017-12-16T22:47:58.811Z,8.20
2017-12-16T22:50:26.366Z,8.24
2017-12-16T22:52:53.966Z,8.05
2017-12-16T22:55:21.615Z,8.09
2017-12-16T22:57:50.021Z,8.05
2017-12-16T23:00:18.452Z,8.15
2017-12-16T23:02:46.084Z,8.15
2017-12-16T23:05:13.835Z,8.12
2017-12-16T23:07:41.425Z,8.01
2017-12-16T23:10:09.432Z,8.10
2017-12-16T23:12:37.053Z,8.20
2017-12-16T23:15:04.661Z,8.15
2017-12-16T23:17:32.291Z,8.23
2017-12-16T23:19:59.960Z,8.31
2017-12-16T23:22:27.586Z,8.20
2017-12-16T23:24:55.529Z,8.18
2017-12-16T23:27:23.171Z,8.04
2017-12-16T23:29:50.825Z,8.23
2017-12-16T23:32:18.453Z,8.34
2017-12-16T23:34:46.083Z,8.41
2017-12-16T23:37:13.936Z,8.41
2017-12-16T23:39:41.533Z,8.20
2017-12-16T23:42:09.374Z,8.08
2017-12-16T23:44:36.986Z,8.20
2017-12-16T23:47:04.816Z,8.24
2017-12-16T23:49:33.191Z,8.27
2017-12-16T23:52:00.898Z,8.15
2017-12-16T23:54:28.781Z,8.19
2017-12-16T23:56:56.662Z,8.19
2017-12-16T23:59:27.183Z,8.15
